Time;durP1;ratioP1;P1;durP2;ratioP2;P2;SDS_P1;SDS_P2;PMS_P1;PMS_P2;Temp;Humidity;BMP_temperature;BMP_pressure;BME280_temperature;BME280_humidity;BME280_pressure;Samples;Min_cycle;Max_cycle;Signal;HPM_P1;HPM_P2
2023/03/11 00:01:59;;;;;;;1.00;1.00;;;5.60;45.80;;;;;;21497;6559;66850;-76
2023/03/11 00:04:35;;;;;;;0.70;0.70;;;5.40;46.40;;;;;;21414;6574;68151;-76
2023/03/11 00:07:10;;;;;;;0.70;0.70;;;5.20;47.20;;;;;;21188;6574;330629;-76
2023/03/11 00:09:46;;;;;;;0.70;0.70;;;5.40;45.10;;;;;;20978;6574;333603;-76
2023/03/11 00:12:22;;;;;;;0.50;0.50;;;5.80;42.90;;;;;;21494;6544;70360;-77
2023/03/11 00:15:00;;;;;;;0.63;0.63;;;5.70;43.60;;;;;;21452;6574;66640;-76
2023/03/11 00:17:33;;;;;;;0.90;0.90;;;5.50;44.70;;;;;;21400;6574;66187;-76
2023/03/11 00:20:08;;;;;;;1.13;1.10;;;5.20;45.30;;;;;;21465;6559;67506;-76
2023/03/11 00:22:47;;;;;;;1.70;0.70;;;5.10;45.90;;;;;;21471;6559;66038;-75
2023/03/11 00:25:22;;;;;;;0.70;0.70;;;4.90;46.50;;;;;;21463;6559;66118;-75
2023/03/11 00:27:58;;;;;;;0.70;0.70;;;4.80;46.80;;;;;;21468;6544;66990;-76
2023/03/11 00:30:34;;;;;;;0.68;0.68;;;5.00;44.90;;;;;;21198;6574;308794;-75
2023/03/11 00:33:10;;;;;;;1.23;0.70;;;4.90;44.80;;;;;;21470;6559;66207;-75
2023/03/11 00:35:45;;;;;;;0.70;0.70;;;5.00;45.60;;;;;;21462;6559;66190;-76
2023/03/11 00:38:22;;;;;;;0.70;0.70;;;4.90;46.10;;;;;;21385;6559;70172;-76
2023/03/11 00:41:00;;;;;;;0.60;0.60;;;4.80;46.30;;;;;;21465;6559;72580;-76
2023/03/11 00:43:34;;;;;;;0.90;0.90;;;4.70;46.90;;;;;;21498;6548;66919;-76
2023/03/11 00:46:09;;;;;;;0.70;0.70;;;4.60;47.50;;;;;;21453;6560;67122;-75
2023/03/11 00:48:45;;;;;;;1.00;1.00;;;4.60;47.40;;;;;;21346;6563;66996;-76
2023/03/11 00:51:23;;;;;;;0.80;0.80;;;4.60;47.50;;;;;;21243;6559;317290;-76
2023/03/11 00:53:56;;;;;;;0.77;0.77;;;4.90;45.70;;;;;;21410;6574;67068;-76
2023/03/11 00:56:31;;;;;;;0.97;0.87;;;5.10;46.00;;;;;;21178;6574;279941;-76
2023/03/11 00:59:07;;;;;;;0.90;0.90;;;5.40;44.60;;;;;;21030;6559;302417;-77
2023/03/11 01:01:43;;;;;;;1.00;1.00;;;5.90;43.40;;;;;;21437;6559;66780;-76
2023/03/11 01:04:20;;;;;;;1.10;1.03;;;5.80;43.40;;;;;;21412;6574;66898;-76
2023/03/11 01:06:56;;;;;;;0.87;0.87;;;5.70;44.30;;;;;;21372;6589;66772;-76
2023/03/11 01:09:34;;;;;;;0.97;0.97;;;5.50;45.10;;;;;;21247;6589;67339;-76
2023/03/11 01:12:07;;;;;;;1.40;1.00;;;5.40;45.40;;;;;;21445;6563;66835;-75
2023/03/11 01:14:43;;;;;;;1.90;0.70;;;5.30;45.90;;;;;;21409;6578;66771;-76
2023/03/11 01:17:22;;;;;;;1.03;0.97;;;5.20;46.20;;;;;;21184;6576;307506;-76
2023/03/11 01:19:55;;;;;;;1.07;1.07;;;5.50;44.90;;;;;;21194;6576;301045;-75
2023/03/11 01:22:31;;;;;;;1.17;1.07;;;6.40;42.00;;;;;;21188;6575;306048;-75
2023/03/11 01:25:08;;;;;;;1.70;1.27;;;6.30;41.90;;;;;;21411;6575;67042;-75
2023/03/11 01:27:42;;;;;;;2.67;1.03;;;6.30;43.10;;;;;;21425;6568;66798;-76
2023/03/11 01:30:18;;;;;;;1.10;1.10;;;6.00;44.00;;;;;;21432;6562;66974;-76
2023/03/11 01:32:54;;;;;;;1.10;1.10;;;5.80;45.20;;;;;;21183;6563;304169;-75
2023/03/11 01:35:29;;;;;;;0.90;0.90;;;6.00;43.50;;;;;;21412;6574;66507;-76
2023/03/11 01:38:05;;;;;;;1.10;1.00;;;6.00;43.70;;;;;;21367;6574;67503;-76
2023/03/11 01:40:40;;;;;;;1.13;1.13;;;5.90;43.70;;;;;;21478;6559;70337;-75
2023/03/11 01:43:36;;;;;;;1.20;1.10;;;5.70;44.50;;;;;;21269;6559;328519;-76
2023/03/11 01:46:51;;;;;;;1.33;1.20;;;5.90;43.10;;;;;;21461;6559;68311;-76
2023/03/11 01:49:27;;;;;;;1.30;1.20;;;5.60;44.20;;;;;;21262;6574;67564;-75
2023/03/11 01:52:06;;;;;;;1.77;1.20;;;5.60;44.20;;;;;;21461;6563;67146;-75
2023/03/11 01:54:39;;;;;;;1.50;1.40;;;5.40;44.70;;;;;;21453;6560;66579;-76
2023/03/11 01:57:14;;;;;;;1.37;1.27;;;5.30;45.40;;;;;;21467;6561;66646;-76
2023/03/11 01:59:50;;;;;;;1.62;1.52;;;5.50;45.20;;;;;;21023;6631;335994;-76
2023/03/11 02:02:39;;;;;;;1.33;1.10;;;5.50;45.20;;;;;;21458;6559;66764;-76
2023/03/11 02:05:16;;;;;;;1.20;1.10;;;5.60;45.20;;;;;;21464;6559;66540;-76
2023/03/11 02:07:52;;;;;;;3.00;1.40;;;5.50;45.40;;;;;;21366;6574;73006;-75
2023/03/11 02:10:27;;;;;;;1.17;1.07;;;5.30;45.70;;;;;;21419;6574;66669;-77
2023/03/11 02:13:03;;;;;;;1.57;0.97;;;5.20;46.20;;;;;;21419;6574;67069;-76
2023/03/11 02:15:39;;;;;;;1.10;1.10;;;5.00;46.20;;;;;;21422;6574;67269;-77
2023/03/11 02:18:17;;;;;;;1.30;1.23;;;5.00;46.20;;;;;;21378;6574;67078;-76
2023/03/11 02:21:20;;;;;;;1.43;1.10;;;4.90;46.40;;;;;;21417;6574;66320;-77
2023/03/11 02:23:58;;;;;;;1.27;1.07;;;4.80;46.60;;;;;;21380;6589;67226;-76
2023/03/11 02:26:57;;;;;;;1.23;1.20;;;4.70;46.90;;;;;;21191;6578;306072;-76
2023/03/11 02:29:33;;;;;;;1.20;1.10;;;4.90;44.10;;;;;;21038;6574;311387;-76
2023/03/11 02:32:09;;;;;;;1.40;1.30;;;5.40;42.30;;;;;;21254;6559;300876;-75
2023/03/11 02:34:45;;;;;;;1.50;1.30;;;5.80;41.90;;;;;;21239;6562;280786;-75
2023/03/11 02:37:21;;;;;;;1.27;1.17;;;6.10;40.20;;;;;;21247;6559;305126;-74
2023/03/11 02:40:23;;;;;;;1.10;1.10;;;6.20;40.30;;;;;;21499;6544;66466;-76
2023/03/11 02:42:59;;;;;;;1.20;1.20;;;5.90;40.80;;;;;;20596;6611;300896;-76
2023/03/11 02:45:35;;;;;;;1.10;1.10;;;5.80;40.10;;;;;;21469;6559;67041;-76
2023/03/11 02:48:11;;;;;;;1.13;1.10;;;5.60;40.70;;;;;;21361;6574;67454;-75
2023/03/11 02:50:56;;;;;;;;;;;;;;;;;;;;;
2023/03/11 02:53:17;;;;;;;1.60;1.30;;;5.30;41.10;;;;;;21396;6574;68027;-76
2023/03/11 02:55:43;;;;;;;1.10;1.10;;;5.20;41.60;;;;;;21414;6630;66652;-76
2023/03/11 02:58:08;;;;;;;1.23;1.13;;;5.00;42.00;;;;;;21137;6631;303124;-76
2023/03/11 03:00:34;;;;;;;1.37;1.30;;;5.00;41.80;;;;;;21066;6672;295304;-77
2023/03/11 03:03:00;;;;;;;1.47;1.33;;;5.60;40.80;;;;;;21021;6687;332339;-76
2023/03/11 03:05:27;;;;;;;1.40;1.17;;;5.50;40.70;;;;;;21059;6672;330334;-75
2023/03/11 03:07:53;;;;;;;1.63;1.40;;;5.80;40.60;;;;;;21167;6687;67061;-75
2023/03/11 03:10:19;;;;;;;0.90;0.90;;;5.20;41.80;;;;;;21275;6672;70733;-74
2023/03/11 03:12:45;;;;;;;1.00;1.00;;;4.90;42.60;;;;;;21232;6687;67834;-77
2023/03/11 03:15:11;;;;;;;1.40;1.33;;;4.90;42.60;;;;;;21278;6672;67390;-75
2023/03/11 03:17:36;;;;;;;1.60;1.50;;;4.70;43.30;;;;;;21020;6687;303929;-76
2023/03/11 03:20:07;;;;;;;1.60;1.50;;;4.80;42.60;;;;;;21061;6672;273365;-76
2023/03/11 03:22:30;;;;;;;1.60;1.30;;;5.30;40.80;;;;;;21001;6687;334223;-75
2023/03/11 03:24:55;;;;;;;2.20;1.30;;;5.30;40.80;;;;;;21063;6672;331359;-76
2023/03/11 03:27:21;;;;;;;1.50;1.40;;;5.30;41.10;;;;;;21232;6687;67001;-75
2023/03/11 03:29:47;;;;;;;1.13;1.13;;;5.30;41.10;;;;;;21281;6672;71833;-75
2023/03/11 03:32:12;;;;;;;1.10;1.00;;;4.90;41.90;;;;;;21281;6672;66498;-76
2023/03/11 03:34:38;;;;;;;2.17;1.50;;;4.60;42.60;;;;;;21021;6687;302222;-76
2023/03/11 03:37:04;;;;;;;2.17;1.20;;;4.60;41.50;;;;;;21236;6687;66890;-75
2023/03/11 03:39:29;;;;;;;1.23;1.13;;;4.50;41.60;;;;;;21016;6687;277943;-75
2023/03/11 03:41:55;;;;;;;1.63;1.10;;;4.60;41.30;;;;;;21013;6685;303511;-76
2023/03/11 03:44:21;;;;;;;0.90;0.90;;;4.70;40.80;;;;;;21289;6671;67722;-75
2023/03/11 03:46:47;;;;;;;1.10;1.00;;;4.70;40.80;;;;;;21283;6672;70835;-75
2023/03/11 03:49:12;;;;;;;1.57;1.40;;;4.30;41.50;;;;;;21027;6687;277397;-76
2023/03/11 03:51:38;;;;;;;1.52;1.35;;;4.20;41.40;;;;;;21279;6672;69675;-75
2023/03/11 03:54:04;;;;;;;1.40;1.20;;;4.20;41.50;;;;;;21028;6687;274858;-75
2023/03/11 03:56:30;;;;;;;1.47;1.17;;;4.30;40.70;;;;;;21291;6672;75401;-76
2023/03/11 03:58:55;;;;;;;1.50;0.93;;;4.20;41.00;;;;;;21235;6687;89770;-76
2023/03/11 04:01:21;;;;;;;1.23;1.10;;;4.00;41.80;;;;;;21294;6672;67052;-75
2023/03/11 04:03:46;;;;;;;2.13;1.17;;;3.70;42.30;;;;;;21248;6687;71884;-75
2023/03/11 04:06:15;;;;;;;2.33;1.13;;;3.60;43.00;;;;;;21064;6672;273667;-76
2023/03/11 04:08:41;;;;;;;1.20;1.00;;;3.70;42.60;;;;;;21232;6687;66976;-75
2023/03/11 04:11:06;;;;;;;2.33;1.13;;;3.80;42.40;;;;;;21061;6672;302047;-76
2023/03/11 04:13:32;;;;;;;1.40;1.30;;;3.90;41.80;;;;;;21017;6687;303319;-75
2023/03/11 04:15:59;;;;;;;1.62;1.10;;;4.20;40.90;;;;;;21065;6672;297209;-77
2023/03/11 04:18:24;;;;;;;1.83;1.10;;;4.50;40.40;;;;;;21225;6687;70341;-76
2023/03/11 04:20:50;;;;;;;1.52;1.00;;;4.30;40.70;;;;;;21069;6672;275640;-76
2023/03/11 04:23:15;;;;;;;1.60;1.20;;;4.30;40.40;;;;;;21018;6687;306128;-75
2023/03/11 04:25:42;;;;;;;1.55;1.20;;;4.30;39.80;;;;;;21283;6672;66941;-75
2023/03/11 04:28:07;;;;;;;3.17;1.17;;;4.30;40.50;;;;;;21232;6687;72812;-75
2023/03/11 04:30:33;;;;;;;1.30;1.20;;;3.90;40.60;;;;;;21285;6672;67373;-75
2023/03/11 04:32:58;;;;;;;1.83;0.80;;;3.60;41.40;;;;;;21287;6672;67469;-75
2023/03/11 04:35:24;;;;;;;1.70;0.93;;;3.40;42.00;;;;;;21237;6687;68353;-76
2023/03/11 04:37:49;;;;;;;1.90;1.10;;;3.30;42.70;;;;;;21286;6672;68282;-76
2023/03/11 04:40:15;;;;;;;2.30;1.10;;;3.10;43.40;;;;;;21068;6672;302617;-75
2023/03/11 04:42:41;;;;;;;1.20;1.20;;;3.30;43.50;;;;;;21235;6687;66849;-75
2023/03/11 04:45:07;;;;;;;1.90;1.20;;;3.50;43.60;;;;;;21057;6672;302964;-76
2023/03/11 04:47:33;;;;;;;3.20;1.07;;;3.70;42.70;;;;;;21236;6687;67056;-75
2023/03/11 04:49:59;;;;;;;1.37;1.27;;;3.70;42.70;;;;;;21277;6672;73682;-75
2023/03/11 04:52:24;;;;;;;2.35;1.10;;;3.50;43.20;;;;;;21025;6687;278865;-76
2023/03/11 04:54:50;;;;;;;1.33;1.07;;;3.70;43.20;;;;;;21296;6670;74659;-75
2023/03/11 04:57:15;;;;;;;2.47;1.60;;;3.60;43.20;;;;;;21021;6686;332191;-75
2023/03/11 04:59:41;;;;;;;4.18;3.78;;;3.80;42.90;;;;;;21072;6672;302953;-75
2023/03/11 05:02:06;;;;;;;3.00;2.80;;;4.10;42.00;;;;;;21240;6687;66975;-76
2023/03/11 05:04:32;;;;;;;3.58;3.20;;;4.10;42.00;;;;;;21014;6687;303595;-77
2023/03/11 05:06:57;;;;;;;2.30;2.10;;;4.10;42.40;;;;;;21067;6672;278810;-75
2023/03/11 05:09:23;;;;;;;2.80;1.90;;;4.40;42.20;;;;;;21242;6687;67131;-75
2023/03/11 05:11:49;;;;;;;1.70;1.60;;;4.30;42.10;;;;;;21059;6672;302642;-75
2023/03/11 05:14:15;;;;;;;3.23;1.37;;;4.30;42.10;;;;;;21287;6672;67916;-76
2023/03/11 05:16:41;;;;;;;1.20;1.10;;;4.20;41.70;;;;;;21023;6687;278503;-75
2023/03/11 05:21:53;;;;;;;1.37;1.27;;;4.40;41.00;;;;;;21280;6672;67104;-76
2023/03/11 05:24:19;;;;;;;1.98;1.23;;;4.20;41.20;;;;;;21030;6687;286583;-76
2023/03/11 05:26:45;;;;;;;1.83;1.30;;;4.20;40.80;;;;;;21290;6672;66937;-75
2023/03/11 05:29:10;;;;;;;2.40;1.10;;;4.10;41.30;;;;;;21236;6687;89572;-76
2023/03/11 05:31:37;;;;;;;1.40;1.30;;;3.90;42.50;;;;;;21067;6672;273940;-76
2023/03/11 05:34:04;;;;;;;2.53;1.33;;;3.90;42.40;;;;;;21018;6687;307083;-76
2023/03/11 05:36:29;;;;;;;1.60;1.30;;;4.20;41.20;;;;;;21054;6672;303741;-76
2023/03/11 05:38:55;;;;;;;2.00;1.33;;;4.40;40.50;;;;;;21021;6687;274354;-75
2023/03/11 05:41:22;;;;;;;1.33;1.20;;;4.60;39.90;;;;;;21277;6672;70498;-79
2023/03/11 05:43:47;;;;;;;1.23;1.10;;;4.50;40.80;;;;;;21230;6687;66901;-79
2023/03/11 05:46:14;;;;;;;2.10;1.40;;;4.20;42.10;;;;;;21017;6687;278202;-78
2023/03/11 05:48:39;;;;;;;2.08;1.30;;;4.20;41.30;;;;;;21060;6672;303966;-78
2023/03/11 05:51:08;;;;;;;1.65;1.10;;;4.50;41.00;;;;;;21015;6687;332703;-75
2023/03/11 05:53:34;;;;;;;2.50;1.20;;;4.70;40.30;;;;;;21279;6672;67020;-76
2023/03/11 05:55:59;;;;;;;1.80;1.20;;;4.60;40.70;;;;;;21278;6672;72775;-76
2023/03/11 05:58:25;;;;;;;1.50;1.40;;;4.30;41.40;;;;;;21014;6687;291494;-76
2023/03/11 06:00:50;;;;;;;1.73;1.20;;;4.30;40.40;;;;;;21064;6672;275036;-76
2023/03/11 06:03:16;;;;;;;1.33;1.10;;;4.50;39.70;;;;;;21026;6687;274878;-77
2023/03/11 06:05:45;;;;;;;1.83;1.30;;;4.70;39.10;;;;;;21064;6670;302553;-78
2023/03/11 06:08:10;;;;;;;0.90;0.90;;;4.90;39.20;;;;;;21220;6686;67158;-78
2023/03/11 06:10:36;;;;;;;2.10;1.27;;;4.70;39.90;;;;;;21284;6672;70202;-75
2023/03/11 06:13:02;;;;;;;1.58;1.23;;;4.30;40.90;;;;;;21274;6672;67158;-79
2023/03/11 06:15:28;;;;;;;2.43;1.50;;;4.00;41.70;;;;;;21241;6687;70531;-75
2023/03/11 06:17:54;;;;;;;2.75;1.60;;;3.80;42.50;;;;;;21057;6672;277471;-75
2023/03/11 06:20:19;;;;;;;2.77;1.80;;;3.90;42.20;;;;;;20897;6687;304018;-75
2023/03/11 06:22:49;;;;;;;1.80;1.30;;;4.40;41.90;;;;;;21229;6672;66482;-78
2023/03/11 06:25:14;;;;;;;1.60;1.50;;;4.30;41.80;;;;;;21010;6687;293817;-77
2023/03/11 06:27:40;;;;;;;1.50;1.40;;;4.50;41.30;;;;;;21045;6672;306415;-76
2023/03/11 06:30:07;;;;;;;2.50;1.40;;;4.80;40.10;;;;;;21227;6687;67045;-76
2023/03/11 06:32:35;;;;;;;3.03;1.30;;;4.80;41.20;;;;;;21069;6672;274231;-76
2023/03/11 06:34:59;;;;;;;1.77;1.43;;;4.70;41.10;;;;;;21257;6674;70190;-76
2023/03/11 06:37:26;;;;;;;1.50;1.33;;;4.70;42.70;;;;;;21271;6674;67446;-75
2023/03/11 06:39:52;;;;;;;1.03;0.90;;;4.60;43.40;;;;;;21235;6687;66886;-77
2023/03/11 06:42:17;;;;;;;1.50;1.27;;;4.50;44.00;;;;;;21277;6672;68002;-77
2023/03/11 06:44:43;;;;;;;1.20;1.10;;;4.50;44.30;;;;;;20995;6687;339423;-77
2023/03/11 06:47:08;;;;;;;1.83;1.30;;;4.90;42.80;;;;;;21036;6672;334150;-77
2023/03/11 06:49:35;;;;;;;1.53;1.20;;;5.40;41.10;;;;;;21273;6674;67365;-77
2023/03/11 06:52:00;;;;;;;2.00;1.00;;;5.60;41.30;;;;;;21235;6687;66564;-77
2023/03/11 06:54:26;;;;;;;2.97;1.07;;;5.60;41.90;;;;;;21247;6687;66646;-72
2023/03/11 06:56:53;;;;;;;3.27;1.30;;;5.60;42.10;;;;;;21017;6687;308403;-72
2023/03/11 06:59:19;;;;;;;1.97;1.30;;;5.90;40.30;;;;;;21284;6672;66449;-72
2023/03/11 07:01:45;;;;;;;1.60;1.10;;;6.00;40.40;;;;;;21019;6687;303173;-72
2023/03/11 07:04:11;;;;;;;1.47;1.00;;;6.50;39.30;;;;;;21288;6672;66527;-72
2023/03/11 07:06:37;;;;;;;1.27;1.03;;;6.50;39.20;;;;;;21051;6672;294055;-74
2023/03/11 07:09:04;;;;;;;2.83;1.20;;;6.90;38.80;;;;;;21032;6687;307649;-73
2023/03/11 07:11:29;;;;;;;3.43;1.23;;;7.40;38.30;;;;;;21049;6672;276399;-71
2023/03/11 07:13:55;;;;;;;1.73;0.97;;;7.90;37.40;;;;;;21240;6687;67330;-70
2023/03/11 07:16:22;;;;;;;1.50;1.10;;;8.10;38.00;;;;;;21250;6685;67431;-78
2023/03/11 07:18:48;;;;;;;1.90;1.00;;;8.10;38.70;;;;;;21048;6671;319041;-77
2023/03/11 07:21:15;;;;;;;2.90;1.20;;;8.40;37.70;;;;;;21005;6686;307091;-74
2023/03/11 07:23:48;;;;;;;1.20;1.10;;;8.80;36.90;;;;;;21266;6672;66448;-73
2023/03/11 07:26:16;;;;;;;1.92;1.20;;;9.00;37.40;;;;;;21003;6687;334403;-73
2023/03/11 07:28:43;;;;;;;1.97;1.07;;;9.20;34.80;;;;;;21273;6672;66478;-75
2023/03/11 07:31:11;;;;;;;2.80;1.20;;;9.10;35.50;;;;;;20983;6687;303176;-74
2023/03/11 07:33:38;;;;;;;0.77;0.77;;;9.10;35.30;;;;;;21259;6672;66941;-75
2023/03/11 07:36:09;;;;;;;1.92;1.00;;;8.90;35.80;;;;;;21055;6687;326856;-74
2023/03/11 07:38:34;;;;;;;1.13;0.90;;;9.00;35.40;;;;;;21337;6672;66042;-74
2023/03/11 07:41:00;;;;;;;1.67;0.90;;;8.90;35.80;;;;;;21295;6687;70366;-72
2023/03/11 07:43:25;;;;;;;2.03;1.15;;;8.60;36.40;;;;;;21134;6672;276317;-73
2023/03/11 07:45:51;;;;;;;5.20;1.23;;;8.60;34.70;;;;;;21307;6687;66954;-72
2023/03/11 07:48:21;;;;;;;2.20;1.10;;;8.50;35.90;;;;;;21126;6672;272692;-74
2023/03/11 07:50:54;;;;;;;2.53;1.30;;;8.50;35.70;;;;;;21125;6672;305268;-74
2023/03/11 07:53:24;;;;;;;2.37;0.77;;;8.80;35.80;;;;;;21289;6687;66610;-73
2023/03/11 07:55:50;;;;;;;0.93;0.83;;;8.60;36.20;;;;;;21342;6672;67894;-74
2023/03/11 07:58:16;;;;;;;3.47;1.30;;;8.40;37.00;;;;;;21019;6687;275067;-72
2023/03/11 08:00:41;;;;;;;3.20;1.25;;;8.60;36.00;;;;;;21099;6672;302073;-73
2023/03/11 08:03:07;;;;;;;2.27;1.17;;;8.90;35.30;;;;;;21262;6687;67567;-73
2023/03/11 08:05:32;;;;;;;3.73;1.60;;;8.80;35.40;;;;;;21086;6672;279862;-73
2023/03/11 08:07:59;;;;;;;2.67;1.42;;;8.90;35.60;;;;;;21017;6687;277562;-75
2023/03/11 08:10:45;;;;;;;3.10;1.50;;;9.00;34.60;;;;;;21048;6687;276400;-74
2023/03/11 08:13:24;;;;;;;3.50;1.37;;;8.80;34.60;;;;;;21439;6622;67706;-74
2023/03/11 08:15:56;;;;;;;1.50;1.27;;;8.80;34.50;;;;;;21506;6564;66570;-74
2023/03/11 08:18:45;;;;;;;;;;;;;;;;;;;;;
2023/03/11 08:21:05;;;;;;;2.47;1.57;;;8.20;36.60;;;;;;21490;6559;68345;-73
2023/03/11 08:23:31;;;;;;;1.33;1.23;;;8.20;37.40;;;;;;21431;6631;66758;-74
2023/03/11 08:26:06;;;;;;;3.62;1.60;;;8.30;37.80;;;;;;21485;6616;87968;-73
2023/03/11 08:28:32;;;;;;;2.47;1.30;;;8.40;37.90;;;;;;21247;6617;78423;-75
2023/03/11 08:30:58;;;;;;;2.20;1.27;;;8.60;38.20;;;;;;21019;6686;273858;-73
2023/03/11 08:33:23;;;;;;;2.87;1.30;;;9.00;34.90;;;;;;21013;6686;330871;-74
2023/03/11 08:35:49;;;;;;;1.47;1.00;;;9.50;34.40;;;;;;21232;6687;67105;-73
2023/03/11 08:38:15;;;;;;;1.80;1.17;;;9.70;34.70;;;;;;21029;6687;275436;-77
2023/03/11 08:40:41;;;;;;;2.67;1.20;;;9.90;33.30;;;;;;21246;6687;67038;-73
2023/03/11 08:43:10;;;;;;;1.23;0.90;;;9.90;34.30;;;;;;21311;6672;71036;-73
2023/03/11 08:45:36;;;;;;;2.70;1.10;;;9.80;34.20;;;;;;21159;6687;68003;-73
2023/03/11 08:48:02;;;;;;;3.20;1.30;;;9.60;34.40;;;;;;21026;6687;277301;-74
2023/03/11 08:50:28;;;;;;;3.37;1.10;;;9.80;33.00;;;;;;21239;6687;78267;-74
2023/03/11 08:52:54;;;;;;;3.58;1.20;;;9.90;33.40;;;;;;21014;6687;276882;-74
2023/03/11 08:55:23;;;;;;;2.97;1.43;;;10.10;31.70;;;;;;21008;6687;309655;-74
2023/03/11 08:57:46;;;;;;;2.90;1.42;;;10.70;28.40;;;;;;20990;6687;274452;-74
2023/03/11 09:00:12;;;;;;;3.23;1.07;;;10.70;28.40;;;;;;21264;6687;67140;-74
2023/03/11 09:02:38;;;;;;;2.13;1.40;;;10.30;29.00;;;;;;21238;6687;66866;-75
2023/03/11 09:05:03;;;;;;;2.90;1.33;;;9.60;30.50;;;;;;21228;6687;71104;-74
2023/03/11 09:07:29;;;;;;;2.40;1.00;;;9.10;31.60;;;;;;21238;6687;66544;-74
2023/03/11 09:09:56;;;;;;;2.00;0.97;;;8.80;32.70;;;;;;21239;6687;66537;-75
2023/03/11 09:12:20;;;;;;;2.78;1.17;;;8.60;33.50;;;;;;21034;6687;277391;-74
2023/03/11 09:14:46;;;;;;;1.98;1.12;;;8.80;32.40;;;;;;21033;6687;303187;-74
2023/03/11 09:17:13;;;;;;;3.60;3.30;;;9.20;30.50;;;;;;21240;6687;72997;-74
2023/03/11 09:19:37;;;;;;;3.70;2.30;;;9.20;31.50;;;;;;21023;6687;305682;-74
2023/03/11 09:22:03;;;;;;;4.10;3.60;;;9.40;32.60;;;;;;21220;6687;75808;-74
2023/03/11 09:24:28;;;;;;;2.10;1.90;;;9.40;32.60;;;;;;21012;6687;308285;-74
2023/03/11 09:26:54;;;;;;;2.87;2.67;;;9.60;32.00;;;;;;21008;6687;273505;-74
2023/03/11 09:29:20;;;;;;;2.53;2.33;;;10.10;31.40;;;;;;21013;6687;273994;-75
2023/03/11 09:31:46;;;;;;;3.33;2.90;;;10.50;30.10;;;;;;21019;6687;303170;-74
2023/03/11 09:34:13;;;;;;;2.37;1.60;;;11.00;28.60;;;;;;21006;6687;307268;-74
2023/03/11 09:36:41;;;;;;;1.50;1.40;;;10.90;28.60;;;;;;21272;6675;68637;-74
2023/03/11 09:39:08;;;;;;;3.57;1.17;;;10.90;30.80;;;;;;21254;6677;66904;-74
2023/03/11 09:41:33;;;;;;;1.73;0.90;;;10.80;30.40;;;;;;21017;6685;307936;-73
2023/03/11 09:44:02;;;;;;;2.40;1.03;;;11.10;28.60;;;;;;21229;6686;67561;-74
2023/03/11 09:46:40;;;;;;;1.27;0.67;;;11.20;29.30;;;;;;21234;6687;66961;-73
2023/03/11 09:49:13;;;;;;;0.63;0.60;;;10.90;29.90;;;;;;21235;6687;66869;-73
2023/03/11 09:51:41;;;;;;;26.42;14.77;;;10.90;29.80;;;;;;20993;6687;318421;-74
2023/03/11 09:54:10;;;;;;;1.83;1.15;;;11.00;28.60;;;;;;21047;6672;302650;-74
2023/03/11 09:56:36;;;;;;;2.37;1.00;;;11.30;27.10;;;;;;21234;6687;75530;-74
2023/03/11 09:59:05;;;;;;;1.73;0.87;;;11.10;28.00;;;;;;21232;6687;67554;-74
2023/03/11 10:01:32;;;;;;;2.73;0.93;;;10.30;28.70;;;;;;21229;6687;71593;-74
2023/03/11 10:04:25;;;;;;;4.53;0.87;;;10.30;29.10;;;;;;21232;6687;66836;-74
2023/03/11 10:06:50;;;;;;;2.10;1.50;;;10.00;29.80;;;;;;21020;6687;303021;-74
2023/03/11 10:09:37;;;;;;;2.77;1.00;;;10.00;28.10;;;;;;21238;6687;66626;-73
2023/03/11 10:12:11;;;;;;;2.37;1.27;;;10.00;28.80;;;;;;21229;6687;70746;-72
2023/03/11 10:14:49;;;;;;;1.57;0.87;;;9.70;30.10;;;;;;21241;6687;67840;-71
2023/03/11 10:17:18;;;;;;;2.20;1.07;;;9.60;31.10;;;;;;21230;6687;67449;-73
2023/03/11 10:19:54;;;;;;;2.17;1.07;;;9.50;31.10;;;;;;21023;6687;306974;-72
2023/03/11 10:22:29;;;;;;;3.50;2.28;;;9.60;29.60;;;;;;20988;6687;307135;-73
2023/03/11 10:25:21;;;;;;;1.83;1.23;;;10.10;28.90;;;;;;21217;6687;66653;-74
2023/03/11 10:27:47;;;;;;;4.20;1.10;;;10.00;29.20;;;;;;20986;6687;275898;-72
2023/03/11 10:30:12;;;;;;;2.23;1.30;;;10.00;27.80;;;;;;21016;6687;307576;-71
2023/03/11 10:32:38;;;;;;;1.43;0.80;;;10.10;27.40;;;;;;21006;6687;275047;-71
2023/03/11 10:35:17;;;;;;;1.30;0.85;;;10.20;27.30;;;;;;21192;6687;67467;-71
2023/03/11 10:37:43;;;;;;;2.27;1.10;;;9.90;28.50;;;;;;21218;6687;67440;-74
2023/03/11 10:40:29;;;;;;;18.02;13.82;;;9.40;29.30;;;;;;20988;6687;332366;-72
2023/03/11 10:42:55;;;;;;;2.53;0.90;;;9.40;28.30;;;;;;20989;6687;309339;-72
2023/03/11 10:45:22;;;;;;;2.03;0.97;;;9.40;28.30;;;;;;21206;6687;66627;-72
2023/03/11 10:47:46;;;;;;;1.00;0.82;;;9.20;29.00;;;;;;21235;6687;66654;-74
2023/03/11 10:50:12;;;;;;;1.30;0.90;;;8.90;29.80;;;;;;21011;6687;322313;-72
2023/03/11 10:52:41;;;;;;;1.35;1.00;;;9.30;32.80;;;;;;21012;6685;307815;-72
2023/03/11 10:55:07;;;;;;;3.57;1.27;;;9.30;32.10;;;;;;21227;6686;66989;-73
2023/03/11 10:57:32;;;;;;;2.70;1.10;;;9.20;32.00;;;;;;21016;6686;303922;-73
2023/03/11 10:59:58;;;;;;;0.97;0.90;;;9.40;32.10;;;;;;21220;6687;69804;-74
2023/03/11 11:02:37;;;;;;;1.40;0.83;;;9.40;32.40;;;;;;21211;6687;67067;-73
2023/03/11 11:05:19;;;;;;;3.07;2.27;;;9.20;32.80;;;;;;21218;6687;66639;-72
2023/03/11 11:07:44;;;;;;;1.50;1.10;;;9.00;33.10;;;;;;21227;6687;66869;-72
2023/03/11 11:10:16;;;;;;;3.00;2.12;;;9.00;33.20;;;;;;21021;6687;332002;-72
2023/03/11 11:12:53;;;;;;;1.77;1.20;;;9.10;30.80;;;;;;21238;6687;73074;-72
2023/03/11 11:15:24;;;;;;;3.00;1.20;;;9.10;30.80;;;;;;21010;6687;303241;-74
2023/03/11 11:17:49;;;;;;;4.17;3.17;;;9.20;29.60;;;;;;21126;6687;68764;-75
2023/03/11 11:20:17;;;;;;;0.80;0.80;;;9.20;30.00;;;;;;21233;6687;67572;-75
2023/03/11 11:22:49;;;;;;;2.70;1.50;;;9.10;29.30;;;;;;21007;6687;273023;-79
2023/03/11 11:25:34;;;;;;;1.93;0.90;;;9.10;29.30;;;;;;20998;6687;307773;-75
2023/03/11 11:27:59;;;;;;;1.45;1.35;;;9.40;29.00;;;;;;20998;6687;301614;-77
2023/03/11 11:30:26;;;;;;;1.90;0.93;;;9.70;28.40;;;;;;21224;6687;67504;-79
2023/03/11 11:32:54;;;;;;;1.73;1.00;;;9.70;29.00;;;;;;21021;6687;332165;-78
2023/03/11 11:35:18;;;;;;;1.75;1.12;;;9.90;29.30;;;;;;21031;6687;305058;-81
2023/03/11 11:37:56;;;;;;;3.10;1.07;;;10.20;28.10;;;;;;21026;6687;275916;-76
2023/03/11 11:40:25;;;;;;;2.20;0.90;;;10.60;28.20;;;;;;21136;6687;67250;-75
2023/03/11 11:42:54;;;;;;;1.20;1.05;;;10.70;28.60;;;;;;20998;6687;322896;-77
2023/03/11 11:45:30;;;;;;;2.27;1.00;;;10.80;27.50;;;;;;21007;6687;308906;-79
2023/03/11 11:47:59;;;;;;;2.17;1.03;;;11.50;27.60;;;;;;20990;6687;308760;-80
2023/03/11 11:50:25;;;;;;;1.60;0.93;;;11.50;27.60;;;;;;20988;6687;332433;-76
2023/03/11 11:52:50;;;;;;;3.03;1.43;;;11.80;26.80;;;;;;21218;6687;70651;-78
2023/03/11 11:55:16;;;;;;;1.77;1.30;;;11.70;27.10;;;;;;21191;6687;66575;-77
2023/03/11 11:57:41;;;;;;;1.00;0.80;;;11.50;27.70;;;;;;21234;6687;70927;-79
2023/03/11 12:00:28;;;;;;;1.00;0.80;;;11.40;28.20;;;;;;21252;6687;66553;-81
2023/03/11 12:03:05;;;;;;;0.70;0.70;;;11.20;28.40;;;;;;21203;6685;66703;-76
2023/03/11 12:05:32;;;;;;;1.42;0.80;;;11.00;28.60;;;;;;21045;6686;303139;-81
2023/03/11 12:07:57;;;;;;;1.20;1.00;;;11.10;26.60;;;;;;21250;6686;67349;-79
2023/03/11 12:10:38;;;;;;;0.90;0.80;;;11.00;27.50;;;;;;21228;6687;67151;-77
2023/03/11 12:13:20;;;;;;;2.23;0.90;;;10.80;27.80;;;;;;21229;6687;66613;-79
2023/03/11 12:16:03;;;;;;;1.97;1.17;;;10.50;28.20;;;;;;21008;6687;273970;-78
2023/03/11 12:18:35;;;;;;;1.48;1.23;;;10.70;27.70;;;;;;21009;6687;278995;-78
2023/03/11 12:21:00;;;;;;;1.40;0.97;;;11.00;27.20;;;;;;21015;6687;296748;-78
2023/03/11 12:23:49;;;;;;;2.12;1.00;;;11.30;27.00;;;;;;21002;6687;303570;-77
2023/03/11 12:26:21;;;;;;;2.80;0.90;;;11.60;26.50;;;;;;21228;6687;66536;-77
2023/03/11 12:28:56;;;;;;;1.37;1.10;;;11.50;27.00;;;;;;20980;6687;303563;-75
2023/03/11 12:31:23;;;;;;;2.35;1.30;;;11.50;26.50;;;;;;20997;6687;336701;-79
2023/03/11 12:33:52;;;;;;;2.30;1.00;;;11.60;26.60;;;;;;21227;6687;67534;-75
2023/03/11 12:36:24;;;;;;;2.00;0.90;;;11.60;26.90;;;;;;21171;6687;66647;-76
2023/03/11 12:38:51;;;;;;;1.23;1.10;;;11.30;27.10;;;;;;21010;6687;307070;-76
2023/03/11 12:41:26;;;;;;;1.70;1.20;;;11.30;26.30;;;;;;21021;6687;302196;-78
2023/03/11 12:43:52;;;;;;;1.37;1.07;;;11.50;26.70;;;;;;21209;6687;69210;-76
2023/03/11 12:46:17;;;;;;;1.35;1.10;;;11.40;26.70;;;;;;20954;6687;307482;-77
2023/03/11 12:48:49;;;;;;;1.63;1.00;;;11.40;26.20;;;;;;21194;6687;67573;-81
2023/03/11 12:51:24;;;;;;;1.40;1.20;;;11.30;26.50;;;;;;20936;6687;311340;-79
2023/03/11 12:53:51;;;;;;;1.80;1.30;;;11.30;26.40;;;;;;20375;6687;307516;-77
2023/03/11 12:56:36;;;;;;;2.60;1.20;;;11.50;25.90;;;;;;21209;6687;67358;-76
2023/03/11 12:59:18;;;;;;;1.00;1.00;;;11.40;26.10;;;;;;21201;6687;67012;-80
2023/03/11 13:02:01;;;;;;;2.50;1.20;;;10.60;26.90;;;;;;21213;6687;67050;-79
2023/03/11 13:04:40;;;;;;;1.87;1.20;;;10.60;26.90;;;;;;20978;6687;303678;-76
2023/03/11 13:07:24;;;;;;;1.10;0.80;;;10.70;26.50;;;;;;21208;6687;69586;-81
2023/03/11 13:10:20;;;;;;;1.30;1.20;;;10.60;26.90;;;;;;21174;6687;67297;-77
2023/03/11 13:12:46;;;;;;;1.95;1.27;;;10.50;27.30;;;;;;20995;6687;303118;-80